createdAt,value
2022-08-18T00:04:49.215Z,266.9
2022-08-18T00:09:48.426Z,237
2022-08-18T00:14:51.317Z,281.2
2022-08-18T00:19:54.391Z,241.4
2022-08-18T00:24:56.654Z,165.4
2022-08-18T00:29:59.392Z,113.7
2022-08-18T00:35:02.120Z,163.4
2022-08-18T00:40:05.817Z,163.5
2022-08-18T00:45:09.014Z,147.5
2022-08-18T00:50:11.782Z,158.7
2022-08-18T00:55:20.249Z,139
2022-08-18T01:00:23.671Z,79.3
2022-08-18T01:05:26.081Z,173.5
2022-08-18T01:10:28.769Z,160.6
2022-08-18T01:15:31.126Z,184.9
2022-08-18T01:20:33.966Z,162.8
2022-08-18T01:25:37.802Z,146.3
2022-08-18T01:30:40.553Z,117
2022-08-18T01:35:43.423Z,1061.9
2022-08-18T01:41:00.237Z,1101.3
2022-08-18T01:45:52.728Z,1104.4
2022-08-18T01:50:55.947Z,1062.6
2022-08-18T01:55:58.218Z,1072.5
2022-08-18T02:01:00.709Z,1065.3
2022-08-18T02:06:03.228Z,583.3
2022-08-18T02:11:08.011Z,864.1
2022-08-18T02:16:10.339Z,241.3
2022-08-18T02:21:14.169Z,5.3
2022-08-18T02:26:21.952Z,6.3
2022-08-18T02:31:24.599Z,4.1
2022-08-18T02:36:27.503Z,4.9
2022-08-18T02:41:31.324Z,5.1
2022-08-18T02:46:34.195Z,6.4
2022-08-18T02:51:36.954Z,10.1
2022-08-18T02:56:42.845Z,6.3
2022-08-18T03:01:45.976Z,6.6
2022-08-18T03:06:51.589Z,6.7
2022-08-18T03:11:54.602Z,16.5
2022-08-18T03:16:57.842Z,6.9
2022-08-18T03:22:03.152Z,10.7
2022-08-18T03:27:00.888Z,9.2
2022-08-18T03:32:03.498Z,11.5
2022-08-18T03:37:06.165Z,12.2
2022-08-18T03:42:08.757Z,11.2
2022-08-18T03:47:11.807Z,21.7
2022-08-18T03:52:14.473Z,25.9
2022-08-18T03:57:19.329Z,32.8
2022-08-18T04:02:22.460Z,33
2022-08-18T04:07:27.559Z,14.6
2022-08-18T04:12:30.513Z,15
2022-08-18T04:17:33.012Z,7.7
2022-08-18T04:22:33.793Z,9.7
2022-08-18T04:27:36.841Z,8.4
2022-08-18T04:32:39.667Z,9.4
2022-08-18T04:37:42.017Z,42.3
2022-08-18T04:42:44.642Z,11.8
2022-08-18T04:47:47.550Z,11.1
2022-08-18T04:52:51.102Z,10.5
2022-08-18T04:57:53.784Z,12.7
2022-08-18T05:02:56.529Z,11.3
2022-08-18T05:07:59.313Z,9.6
2022-08-18T05:13:02.533Z,13.7
2022-08-18T05:18:05.138Z,12.8
2022-08-18T05:23:09.942Z,11.4
2022-08-18T05:28:12.824Z,10.8
2022-08-18T05:33:16.603Z,8.5
2022-08-18T05:38:19.477Z,7.8
2022-08-18T05:43:22.098Z,13.7
2022-08-18T05:48:25.808Z,10.5
2022-08-18T05:53:28.194Z,118.2
2022-08-18T05:58:33.034Z,719.1
2022-08-18T06:03:45.389Z,1104.4
2022-08-18T06:08:39.621Z,1084
2022-08-18T06:13:43.390Z,368.3
2022-08-18T06:18:46.291Z,377.2
2022-08-18T06:23:48.694Z,235.8
2022-08-18T06:28:51.040Z,254.1
2022-08-18T06:33:53.306Z,282.9
2022-08-18T06:38:55.736Z,226.6
2022-08-18T06:43:58.071Z,227.3
2022-08-18T06:49:00.878Z,311.2
2022-08-18T06:54:03.639Z,417.8
2022-08-18T06:59:06.033Z,403.5
2022-08-18T07:04:10.736Z,342.7
2022-08-18T07:09:13.283Z,250.5
2022-08-18T07:14:16.960Z,326.5
2022-08-18T07:19:19.935Z,284.2
2022-08-18T07:24:25.085Z,255.3
2022-08-18T07:29:28.368Z,227.5
2022-08-18T07:34:31.180Z,164.2
2022-08-18T07:39:33.772Z,228.4
2022-08-18T07:44:36.592Z,215.2
2022-08-18T07:49:54.611Z,299.4
2022-08-18T07:54:49.657Z,178.7
2022-08-18T07:59:42.943Z,278.3
2022-08-18T08:04:45.339Z,271.3
2022-08-18T08:09:51.989Z,1122.5
2022-08-18T08:14:57.146Z,1145.5
2022-08-18T08:20:01.157Z,1118.6
2022-08-18T08:25:17.619Z,1193.4
2022-08-18T08:30:08.558Z,7.1
2022-08-18T08:35:15.667Z,11.9
2022-08-18T08:40:13.538Z,9.8
2022-08-18T08:45:16.457Z,6.8
2022-08-18T08:50:19.193Z,9.3
2022-08-18T08:55:22.400Z,6.7
2022-08-18T09:00:25.033Z,7.1
2022-08-18T09:05:27.588Z,8.3
2022-08-18T09:10:29.877Z,8.6
2022-08-18T09:15:33.829Z,6.4
2022-08-18T09:20:36.511Z,14.5
2022-08-18T09:25:39.713Z,6.1
2022-08-18T09:30:42.303Z,6.9
2022-08-18T09:35:51.945Z,5.4
2022-08-18T09:41:02.918Z,19.4
2022-08-18T13:11:14.888Z,8.9
2022-08-18T13:16:09.447Z,8.8
2022-08-18T13:21:15.446Z,9.2
2022-08-18T13:26:20.126Z,8.4
2022-08-18T13:31:23.320Z,6.8
2022-08-18T13:36:26.136Z,8.8
2022-08-18T13:41:32.491Z,8.8
2022-08-18T13:46:39.738Z,6.9
2022-08-18T13:51:42.661Z,7.3
2022-08-18T13:56:51.416Z,8.4
2022-08-18T14:01:54.921Z,10.4
2022-08-18T14:06:59.222Z,10.6
2022-08-18T14:11:59.219Z,9.7
2022-08-18T14:17:03.825Z,12.3
2022-08-18T14:22:11.038Z,7.8
2022-08-18T14:27:14.366Z,21
2022-08-18T14:32:17.980Z,18.4
2022-08-18T14:37:19.299Z,8.7
2022-08-18T14:42:32.731Z,27.9
2022-08-18T14:47:29.944Z,7
2022-08-18T14:52:28.927Z,10.2
2022-08-18T14:57:32.998Z,8.4
2022-08-18T15:02:40.788Z,7.1
2022-08-18T15:07:47.140Z,9.9
2022-08-18T15:12:50.255Z,8.6
2022-08-18T15:17:54.144Z,14.1
2022-08-18T15:22:59.879Z,9.2
2022-08-18T15:28:04.902Z,13.3
2022-08-18T15:33:14.825Z,9.2
2022-08-18T15:38:22.009Z,8.1
2022-08-18T15:43:29.000Z,14.2
2022-08-18T15:48:35.697Z,12.1
2022-08-18T15:53:44.478Z,12
2022-08-18T15:58:40.688Z,12.7
2022-08-18T16:03:48.823Z,13.1
2022-08-18T16:08:54.580Z,11.3
2022-08-18T16:13:57.514Z,11.5
2022-08-18T16:18:59.849Z,8.4
2022-08-18T16:24:03.004Z,13
2022-08-18T16:29:05.443Z,9.2
2022-08-18T16:34:08.042Z,8.3
2022-08-18T16:39:10.577Z,6.3
2022-08-18T16:44:15.731Z,13.7
2022-08-18T16:49:18.328Z,19.4
2022-08-18T16:54:20.868Z,28.6
2022-08-18T16:59:23.603Z,27.7
2022-08-18T17:04:26.973Z,43
2022-08-18T17:09:29.386Z,21
2022-08-18T17:14:32.445Z,22.7
2022-08-18T17:19:35.905Z,25.6
2022-08-18T17:24:36.480Z,10.6
2022-08-18T17:29:41.146Z,9.7
2022-08-18T17:34:43.455Z,11.8
2022-08-18T17:39:46.257Z,12.5
2022-08-18T17:44:52.475Z,25.3
2022-08-18T17:50:06.870Z,19.8
2022-08-18T17:55:00.944Z,17.3
2022-08-18T18:00:03.273Z,12.6
2022-08-18T18:05:05.531Z,11.3
2022-08-18T18:10:07.785Z,12.6
2022-08-18T18:15:12.372Z,9
2022-08-18T18:20:15.272Z,8.3
2022-08-18T18:25:18.298Z,9.5
2022-08-18T18:30:27.598Z,10.8
2022-08-18T18:35:24.776Z,7
2022-08-18T18:40:29.499Z,13.5
2022-08-18T18:45:32.066Z,50.2
2022-08-18T18:50:34.616Z,441.9
2022-08-18T18:55:37.516Z,585.4
2022-08-18T19:00:39.852Z,856.3
2022-08-18T19:05:43.224Z,1100.2
2022-08-18T19:10:46.152Z,1098.7
2022-08-18T19:15:48.733Z,997.2
2022-08-18T19:21:45.951Z,903.9
2022-08-18T19:25:58.550Z,674.5
2022-08-18T19:31:08.908Z,783.8
2022-08-18T19:36:13.466Z,718.9
2022-08-18T19:41:20.043Z,580.3
2022-08-18T19:46:23.168Z,664
2022-08-18T19:51:25.761Z,698.8
2022-08-18T19:56:28.329Z,602.1
2022-08-18T20:01:30.610Z,584.6
2022-08-18T20:06:35.826Z,575.8
2022-08-18T20:11:41.693Z,492.4
2022-08-18T20:16:45.282Z,392
2022-08-18T20:22:16.023Z,36.1
2022-08-18T20:27:15.453Z,315
2022-08-18T20:32:18.756Z,340.6
2022-08-18T20:37:21.462Z,226.5
2022-08-18T20:42:28.178Z,198.7
2022-08-18T20:47:34.037Z,199.9
2022-08-18T20:52:37.921Z,198.3
2022-08-18T20:57:43.923Z,194.2
2022-08-18T21:02:46.680Z,192.7
2022-08-18T21:07:49.751Z,169.1
2022-08-18T21:12:53.151Z,188
2022-08-18T21:17:56.980Z,151.7
2022-08-18T21:23:00.093Z,177.9
2022-08-18T21:28:02.739Z,167
2022-08-18T21:33:05.331Z,130.1
2022-08-18T21:38:07.636Z,158.5
2022-08-18T21:43:10.409Z,175.5
2022-08-18T21:48:13.139Z,89.3
2022-08-18T21:53:15.474Z,173.5
2022-08-18T21:58:18.577Z,81
2022-08-18T22:03:25.365Z,148.6
2022-08-18T22:08:29.222Z,177.2
2022-08-18T22:13:32.245Z,146.8
2022-08-18T22:18:35.415Z,170
2022-08-18T22:23:37.979Z,124.3
2022-08-18T22:28:44.842Z,176.2
2022-08-18T22:33:47.541Z,141.3
2022-08-18T22:38:50.318Z,129.3
2022-08-18T22:43:54.600Z,163.4
2022-08-18T22:48:57.511Z,120.3
2022-08-18T22:54:00.146Z,167.9
2022-08-18T22:59:03.662Z,155.3
2022-08-18T23:04:11.637Z,172.4
2022-08-18T23:09:14.262Z,115.4
2022-08-18T23:14:16.968Z,112.6
2022-08-18T23:19:19.590Z,131.7
2022-08-18T23:24:22.374Z,86.8
2022-08-18T23:29:25.122Z,157.2
2022-08-18T23:34:27.844Z,137.6
2022-08-18T23:39:30.288Z,114
2022-08-18T23:44:33.306Z,131.3
2022-08-18T23:49:35.612Z,149.9
2022-08-18T23:54:38.798Z,122.8
2022-08-18T23:59:41.230Z,105.4
